sensor_id;sensor_type;location;lat;lon;timestamp;P1;durP1;ratioP1;P2;durP2;ratioP2
22284;SDS011;11311;52.192;20.900;2022-08-19T00:01:55;16.45;;;12.18;;
22284;SDS011;11311;52.192;20.900;2022-08-19T00:04:27;20.40;;;12.00;;
22284;SDS011;11311;52.192;20.900;2022-08-19T00:06:59;16.95;;;13.23;;
22284;SDS011;11311;52.192;20.900;2022-08-19T00:09:29;24.75;;;13.20;;
22284;SDS011;11311;52.192;20.900;2022-08-19T00:11:57;19.70;;;13.82;;
22284;SDS011;11311;52.192;20.900;2022-08-19T00:14:26;18.08;;;12.27;;
22284;SDS011;11311;52.192;20.900;2022-08-19T00:16:59;19.90;;;13.32;;
22284;SDS011;11311;52.192;20.900;2022-08-19T00:19:31;15.57;;;12.70;;
22284;SDS011;11311;52.192;20.900;2022-08-19T00:21:59;23.65;;;12.75;;
22284;SDS011;11311;52.192;20.900;2022-08-19T00:24:29;21.35;;;12.73;;
22284;SDS011;11311;52.192;20.900;2022-08-19T00:26:58;16.98;;;12.57;;
22284;SDS011;11311;52.192;20.900;2022-08-19T00:29:48;14.73;;;13.05;;
22284;SDS011;11311;52.192;20.900;2022-08-19T00:32:18;14.00;;;12.30;;
22284;SDS011;11311;52.192;20.900;2022-08-19T00:34:50;14.52;;;12.05;;
22284;SDS011;11311;52.192;20.900;2022-08-19T00:37:20;18.10;;;12.75;;
22284;SDS011;11311;52.192;20.900;2022-08-19T00:39:50;18.15;;;12.70;;
22284;SDS011;11311;52.192;20.900;2022-08-19T00:42:20;24.13;;;12.48;;
22284;SDS011;11311;52.192;20.900;2022-08-19T00:44:50;18.02;;;12.20;;
22284;SDS011;11311;52.192;20.900;2022-08-19T00:47:18;14.27;;;12.77;;
22284;SDS011;11311;52.192;20.900;2022-08-19T00:49:47;16.20;;;11.52;;
22284;SDS011;11311;52.192;20.900;2022-08-19T00:52:21;16.60;;;12.68;;
22284;SDS011;11311;52.192;20.900;2022-08-19T00:54:51;21.67;;;12.73;;
22284;SDS011;11311;52.192;20.900;2022-08-19T00:57:22;16.48;;;12.73;;
22284;SDS011;11311;52.192;20.900;2022-08-19T00:59:55;18.90;;;12.35;;
22284;SDS011;11311;52.192;20.900;2022-08-19T01:02:29;18.35;;;12.52;;
22284;SDS011;11311;52.192;20.900;2022-08-19T01:04:59;16.30;;;11.27;;
22284;SDS011;11311;52.192;20.900;2022-08-19T01:07:30;15.93;;;12.80;;
22284;SDS011;11311;52.192;20.900;2022-08-19T01:10:05;21.20;;;13.10;;
22284;SDS011;11311;52.192;20.900;2022-08-19T01:12:35;16.50;;;13.23;;
22284;SDS011;11311;52.192;20.900;2022-08-19T01:15:05;15.35;;;12.32;;
22284;SDS011;11311;52.192;20.900;2022-08-19T01:17:36;17.95;;;12.48;;
22284;SDS011;11311;52.192;20.900;2022-08-19T01:20:09;17.40;;;12.07;;
22284;SDS011;11311;52.192;20.900;2022-08-19T01:22:41;15.38;;;13.30;;
22284;SDS011;11311;52.192;20.900;2022-08-19T01:25:13;20.63;;;11.73;;
22284;SDS011;11311;52.192;20.900;2022-08-19T01:27:43;17.52;;;12.02;;
22284;SDS011;11311;52.192;20.900;2022-08-19T01:30:16;15.07;;;12.18;;
22284;SDS011;11311;52.192;20.900;2022-08-19T01:32:47;18.85;;;12.82;;
22284;SDS011;11311;52.192;20.900;2022-08-19T01:35:17;20.95;;;12.60;;
22284;SDS011;11311;52.192;20.900;2022-08-19T01:37:48;12.82;;;11.60;;
22284;SDS011;11311;52.192;20.900;2022-08-19T01:40:20;16.50;;;12.75;;
22284;SDS011;11311;52.192;20.900;2022-08-19T01:42:49;18.27;;;12.00;;
22284;SDS011;11311;52.192;20.900;2022-08-19T01:45:21;19.30;;;12.63;;
22284;SDS011;11311;52.192;20.900;2022-08-19T01:47:52;17.42;;;12.63;;
22284;SDS011;11311;52.192;20.900;2022-08-19T01:50:28;18.20;;;12.50;;
22284;SDS011;11311;52.192;20.900;2022-08-19T01:53:00;14.75;;;11.75;;
22284;SDS011;11311;52.192;20.900;2022-08-19T01:55:33;16.00;;;11.45;;
22284;SDS011;11311;52.192;20.900;2022-08-19T01:58:08;19.73;;;12.23;;
22284;SDS011;11311;52.192;20.900;2022-08-19T02:00:39;29.15;;;13.50;;
22284;SDS011;11311;52.192;20.900;2022-08-19T02:03:09;21.75;;;13.13;;
22284;SDS011;11311;52.192;20.900;2022-08-19T02:05:38;14.07;;;11.43;;
22284;SDS011;11311;52.192;20.900;2022-08-19T02:08:09;15.40;;;12.18;;
22284;SDS011;11311;52.192;20.900;2022-08-19T02:10:39;18.30;;;12.18;;
22284;SDS011;11311;52.192;20.900;2022-08-19T02:13:09;22.10;;;12.93;;
22284;SDS011;11311;52.192;20.900;2022-08-19T02:15:38;17.15;;;11.10;;
22284;SDS011;11311;52.192;20.900;2022-08-19T02:18:07;16.63;;;12.25;;
22284;SDS011;11311;52.192;20.900;2022-08-19T02:20:36;18.15;;;12.63;;
22284;SDS011;11311;52.192;20.900;2022-08-19T02:23:06;15.82;;;13.48;;
22284;SDS011;11311;52.192;20.900;2022-08-19T02:25:43;16.35;;;12.00;;
22284;SDS011;11311;52.192;20.900;2022-08-19T02:28:13;13.80;;;12.38;;
22284;SDS011;11311;52.192;20.900;2022-08-19T02:30:45;17.83;;;12.38;;
22284;SDS011;11311;52.192;20.900;2022-08-19T02:33:15;16.88;;;12.80;;
22284;SDS011;11311;52.192;20.900;2022-08-19T02:35:44;14.82;;;12.60;;
22284;SDS011;11311;52.192;20.900;2022-08-19T02:38:13;18.98;;;13.63;;
22284;SDS011;11311;52.192;20.900;2022-08-19T02:40:57;15.05;;;12.80;;
22284;SDS011;11311;52.192;20.900;2022-08-19T02:43:28;19.90;;;13.90;;
22284;SDS011;11311;52.192;20.900;2022-08-19T02:46:00;22.15;;;15.65;;
22284;SDS011;11311;52.192;20.900;2022-08-19T02:48:29;23.52;;;14.55;;
22284;SDS011;11311;52.192;20.900;2022-08-19T02:50:59;21.13;;;14.23;;
22284;SDS011;11311;52.192;20.900;2022-08-19T02:53:28;15.43;;;13.82;;
22284;SDS011;11311;52.192;20.900;2022-08-19T02:55:58;17.27;;;13.20;;
22284;SDS011;11311;52.192;20.900;2022-08-19T02:58:27;16.42;;;14.38;;
22284;SDS011;11311;52.192;20.900;2022-08-19T03:00:56;16.38;;;14.65;;
22284;SDS011;11311;52.192;20.900;2022-08-19T03:03:25;16.37;;;14.33;;
22284;SDS011;11311;52.192;20.900;2022-08-19T03:06:07;17.80;;;15.38;;
22284;SDS011;11311;52.192;20.900;2022-08-19T03:08:37;23.45;;;15.00;;
22284;SDS011;11311;52.192;20.900;2022-08-19T03:11:10;20.08;;;14.90;;
22284;SDS011;11311;52.192;20.900;2022-08-19T03:13:41;28.10;;;14.27;;
22284;SDS011;11311;52.192;20.900;2022-08-19T03:16:10;23.77;;;14.38;;
22284;SDS011;11311;52.192;20.900;2022-08-19T03:18:40;18.55;;;13.43;;
22284;SDS011;11311;52.192;20.900;2022-08-19T03:21:09;17.63;;;14.03;;
22284;SDS011;11311;52.192;20.900;2022-08-19T03:23:38;16.73;;;13.77;;
22284;SDS011;11311;52.192;20.900;2022-08-19T03:26:08;17.65;;;13.73;;
22284;SDS011;11311;52.192;20.900;2022-08-19T03:28:42;21.27;;;14.10;;
22284;SDS011;11311;52.192;20.900;2022-08-19T03:31:23;15.20;;;13.60;;
22284;SDS011;11311;52.192;20.900;2022-08-19T03:34:14;19.05;;;13.82;;
22284;SDS011;11311;52.192;20.900;2022-08-19T03:36:45;17.13;;;14.35;;
22284;SDS011;11311;52.192;20.900;2022-08-19T03:39:15;21.70;;;13.85;;
22284;SDS011;11311;52.192;20.900;2022-08-19T03:41:46;21.10;;;14.60;;
22284;SDS011;11311;52.192;20.900;2022-08-19T03:44:37;27.40;;;13.43;;
22284;SDS011;11311;52.192;20.900;2022-08-19T03:47:05;21.25;;;14.25;;
22284;SDS011;11311;52.192;20.900;2022-08-19T03:49:34;17.63;;;13.50;;
22284;SDS011;11311;52.192;20.900;2022-08-19T03:52:03;18.50;;;13.93;;
22284;SDS011;11311;52.192;20.900;2022-08-19T03:54:34;23.58;;;13.57;;
22284;SDS011;11311;52.192;20.900;2022-08-19T03:59:36;16.90;;;14.27;;
22284;SDS011;11311;52.192;20.900;2022-08-19T04:02:07;18.90;;;14.23;;
22284;SDS011;11311;52.192;20.900;2022-08-19T04:04:37;16.63;;;14.30;;
22284;SDS011;11311;52.192;20.900;2022-08-19T04:07:07;19.10;;;14.43;;
22284;SDS011;11311;52.192;20.900;2022-08-19T04:09:37;17.58;;;14.48;;
22284;SDS011;11311;52.192;20.900;2022-08-19T04:12:08;20.70;;;14.60;;
22284;SDS011;11311;52.192;20.900;2022-08-19T04:17:05;24.25;;;15.70;;
22284;SDS011;11311;52.192;20.900;2022-08-19T04:19:34;18.25;;;14.32;;
22284;SDS011;11311;52.192;20.900;2022-08-19T04:22:04;18.35;;;14.70;;
22284;SDS011;11311;52.192;20.900;2022-08-19T04:24:34;19.42;;;14.18;;
22284;SDS011;11311;52.192;20.900;2022-08-19T04:27:03;21.00;;;15.30;;
22284;SDS011;11311;52.192;20.900;2022-08-19T04:29:34;15.82;;;14.05;;
22284;SDS011;11311;52.192;20.900;2022-08-19T04:32:05;23.17;;;14.75;;
22284;SDS011;11311;52.192;20.900;2022-08-19T04:37:23;17.33;;;13.20;;
22284;SDS011;11311;52.192;20.900;2022-08-19T04:40:03;17.60;;;14.60;;
22284;SDS011;11311;52.192;20.900;2022-08-19T04:42:50;18.02;;;12.43;;
22284;SDS011;11311;52.192;20.900;2022-08-19T04:45:22;19.02;;;13.90;;
22284;SDS011;11311;52.192;20.900;2022-08-19T04:47:54;17.52;;;13.85;;
22284;SDS011;11311;52.192;20.900;2022-08-19T04:50:44;17.15;;;13.18;;
22284;SDS011;11311;52.192;20.900;2022-08-19T04:53:13;18.85;;;14.88;;
22284;SDS011;11311;52.192;20.900;2022-08-19T04:55:42;19.80;;;14.60;;
22284;SDS011;11311;52.192;20.900;2022-08-19T04:58:10;15.00;;;13.52;;
22284;SDS011;11311;52.192;20.900;2022-08-19T05:00:41;14.90;;;13.50;;
22284;SDS011;11311;52.192;20.900;2022-08-19T05:05:40;27.85;;;14.43;;
22284;SDS011;11311;52.192;20.900;2022-08-19T05:08:11;17.35;;;12.98;;
22284;SDS011;11311;52.192;20.900;2022-08-19T05:10:42;24.85;;;13.50;;
22284;SDS011;11311;52.192;20.900;2022-08-19T05:13:11;21.40;;;13.03;;
22284;SDS011;11311;52.192;20.900;2022-08-19T05:15:41;19.52;;;13.73;;
22284;SDS011;11311;52.192;20.900;2022-08-19T05:18:10;18.02;;;12.95;;
22284;SDS011;11311;52.192;20.900;2022-08-19T05:20:56;17.85;;;13.02;;
22284;SDS011;11311;52.192;20.900;2022-08-19T05:23:42;17.85;;;12.80;;
22284;SDS011;11311;52.192;20.900;2022-08-19T05:26:11;20.50;;;14.20;;
22284;SDS011;11311;52.192;20.900;2022-08-19T05:28:40;30.20;;;14.20;;
22284;SDS011;11311;52.192;20.900;2022-08-19T05:31:10;21.50;;;13.07;;
22284;SDS011;11311;52.192;20.900;2022-08-19T05:36:07;15.32;;;13.00;;
22284;SDS011;11311;52.192;20.900;2022-08-19T05:38:36;20.95;;;12.32;;
22284;SDS011;11311;52.192;20.900;2022-08-19T05:41:06;20.98;;;13.00;;
22284;SDS011;11311;52.192;20.900;2022-08-19T05:43:35;25.65;;;13.82;;
22284;SDS011;11311;52.192;20.900;2022-08-19T05:46:04;17.40;;;12.77;;
22284;SDS011;11311;52.192;20.900;2022-08-19T05:48:35;24.73;;;13.37;;
22284;SDS011;11311;52.192;20.900;2022-08-19T05:51:04;17.75;;;11.57;;
22284;SDS011;11311;52.192;20.900;2022-08-19T05:53:33;15.65;;;12.13;;
22284;SDS011;11311;52.192;20.900;2022-08-19T05:56:04;23.75;;;12.57;;
22284;SDS011;11311;52.192;20.900;2022-08-19T06:01:02;19.50;;;11.65;;
22284;SDS011;11311;52.192;20.900;2022-08-19T06:03:32;16.38;;;12.00;;
22284;SDS011;11311;52.192;20.900;2022-08-19T06:06:04;25.88;;;12.90;;
22284;SDS011;11311;52.192;20.900;2022-08-19T06:08:34;23.67;;;11.73;;
22284;SDS011;11311;52.192;20.900;2022-08-19T06:11:18;14.50;;;11.23;;
22284;SDS011;11311;52.192;20.900;2022-08-19T06:13:49;19.70;;;11.65;;
22284;SDS011;11311;52.192;20.900;2022-08-19T06:16:26;15.23;;;11.20;;
22284;SDS011;11311;52.192;20.900;2022-08-19T06:18:58;13.80;;;11.63;;
22284;SDS011;11311;52.192;20.900;2022-08-19T06:21:29;12.38;;;10.85;;
22284;SDS011;11311;52.192;20.900;2022-08-19T06:23:58;17.55;;;11.32;;
22284;SDS011;11311;52.192;20.900;2022-08-19T06:26:27;17.88;;;11.93;;
22284;SDS011;11311;52.192;20.900;2022-08-19T06:28:56;20.45;;;12.05;;
22284;SDS011;11311;52.192;20.900;2022-08-19T06:31:25;19.10;;;11.30;;
22284;SDS011;11311;52.192;20.900;2022-08-19T06:33:57;18.23;;;10.63;;
22284;SDS011;11311;52.192;20.900;2022-08-19T06:38:58;21.85;;;11.52;;
22284;SDS011;11311;52.192;20.900;2022-08-19T06:41:28;21.05;;;11.88;;
22284;SDS011;11311;52.192;20.900;2022-08-19T06:43:58;26.45;;;11.18;;
22284;SDS011;11311;52.192;20.900;2022-08-19T06:46:26;20.83;;;11.02;;
22284;SDS011;11311;52.192;20.900;2022-08-19T06:49:02;20.45;;;11.35;;
22284;SDS011;11311;52.192;20.900;2022-08-19T06:51:31;18.98;;;11.38;;
22284;SDS011;11311;52.192;20.900;2022-08-19T06:54:08;14.73;;;10.93;;
22284;SDS011;11311;52.192;20.900;2022-08-19T06:56:45;15.10;;;10.43;;
22284;SDS011;11311;52.192;20.900;2022-08-19T06:59:15;20.60;;;10.75;;
22284;SDS011;11311;52.192;20.900;2022-08-19T07:01:45;13.35;;;10.75;;
22284;SDS011;11311;52.192;20.900;2022-08-19T07:04:18;13.85;;;9.40;;
22284;SDS011;11311;52.192;20.900;2022-08-19T07:06:49;16.15;;;10.98;;
22284;SDS011;11311;52.192;20.900;2022-08-19T07:09:21;17.95;;;10.50;;
22284;SDS011;11311;52.192;20.900;2022-08-19T07:11:50;14.95;;;11.07;;
22284;SDS011;11311;52.192;20.900;2022-08-19T07:14:21;18.92;;;11.05;;
22284;SDS011;11311;52.192;20.900;2022-08-19T07:16:51;11.70;;;9.57;;
22284;SDS011;11311;52.192;20.900;2022-08-19T07:19:24;12.27;;;10.75;;
22284;SDS011;11311;52.192;20.900;2022-08-19T07:21:54;19.25;;;9.90;;
22284;SDS011;11311;52.192;20.900;2022-08-19T07:24:24;13.40;;;10.05;;
22284;SDS011;11311;52.192;20.900;2022-08-19T07:27:00;15.13;;;9.82;;
22284;SDS011;11311;52.192;20.900;2022-08-19T07:29:41;16.48;;;9.10;;
22284;SDS011;11311;52.192;20.900;2022-08-19T07:32:09;18.90;;;9.63;;
22284;SDS011;11311;52.192;20.900;2022-08-19T07:34:40;15.20;;;9.73;;
22284;SDS011;11311;52.192;20.900;2022-08-19T07:37:09;20.83;;;8.68;;
22284;SDS011;11311;52.192;20.900;2022-08-19T07:39:38;13.05;;;8.38;;
22284;SDS011;11311;52.192;20.900;2022-08-19T07:42:08;16.38;;;8.77;;
22284;SDS011;11311;52.192;20.900;2022-08-19T07:44:39;17.65;;;8.90;;
22284;SDS011;11311;52.192;20.900;2022-08-19T07:47:15;13.88;;;7.80;;
22284;SDS011;11311;52.192;20.900;2022-08-19T07:50:07;15.73;;;8.95;;
22284;SDS011;11311;52.192;20.900;2022-08-19T07:52:38;14.43;;;7.60;;
22284;SDS011;11311;52.192;20.900;2022-08-19T07:55:08;16.17;;;8.35;;
22284;SDS011;11311;52.192;20.900;2022-08-19T07:57:58;15.07;;;9.55;;
22284;SDS011;11311;52.192;20.900;2022-08-19T08:00:29;15.27;;;9.02;;
22284;SDS011;11311;52.192;20.900;2022-08-19T08:02:57;13.32;;;8.77;;
22284;SDS011;11311;52.192;20.900;2022-08-19T08:05:27;20.65;;;9.50;;
22284;SDS011;11311;52.192;20.900;2022-08-19T08:08:17;18.02;;;8.60;;
22284;SDS011;11311;52.192;20.900;2022-08-19T08:11:10;11.20;;;8.07;;
22284;SDS011;11311;52.192;20.900;2022-08-19T08:13:41;12.52;;;9.00;;
22284;SDS011;11311;52.192;20.900;2022-08-19T08:16:10;17.35;;;8.07;;
22284;SDS011;11311;52.192;20.900;2022-08-19T08:18:40;10.57;;;8.38;;
22284;SDS011;11311;52.192;20.900;2022-08-19T08:21:20;16.45;;;9.15;;
22284;SDS011;11311;52.192;20.900;2022-08-19T08:23:49;14.52;;;8.70;;
22284;SDS011;11311;52.192;20.900;2022-08-19T08:26:22;11.63;;;8.30;;
22284;SDS011;11311;52.192;20.900;2022-08-19T08:28:51;14.88;;;9.55;;
22284;SDS011;11311;52.192;20.900;2022-08-19T08:31:20;11.55;;;7.60;;
22284;SDS011;11311;52.192;20.900;2022-08-19T08:33:49;15.98;;;9.27;;
22284;SDS011;11311;52.192;20.900;2022-08-19T08:36:17;16.50;;;9.68;;
22284;SDS011;11311;52.192;20.900;2022-08-19T08:38:48;14.75;;;9.30;;
22284;SDS011;11311;52.192;20.900;2022-08-19T08:41:25;11.93;;;8.82;;
22284;SDS011;11311;52.192;20.900;2022-08-19T08:43:56;15.02;;;9.25;;
22284;SDS011;11311;52.192;20.900;2022-08-19T08:46:26;25.65;;;10.23;;
22284;SDS011;11311;52.192;20.900;2022-08-19T08:49:00;21.58;;;9.52;;
22284;SDS011;11311;52.192;20.900;2022-08-19T08:51:33;12.18;;;9.13;;
22284;SDS011;11311;52.192;20.900;2022-08-19T08:54:13;11.38;;;9.02;;
22284;SDS011;11311;52.192;20.900;2022-08-19T08:56:44;16.98;;;9.90;;
22284;SDS011;11311;52.192;20.900;2022-08-19T08:59:19;16.92;;;8.50;;
22284;SDS011;11311;52.192;20.900;2022-08-19T09:01:49;15.50;;;8.30;;
22284;SDS011;11311;52.192;20.900;2022-08-19T09:04:18;15.30;;;8.52;;
22284;SDS011;11311;52.192;20.900;2022-08-19T09:06:51;15.75;;;8.50;;
22284;SDS011;11311;52.192;20.900;2022-08-19T09:09:26;11.20;;;8.98;;
22284;SDS011;11311;52.192;20.900;2022-08-19T09:12:02;15.93;;;8.48;;
22284;SDS011;11311;52.192;20.900;2022-08-19T09:14:39;13.82;;;7.35;;
22284;SDS011;11311;52.192;20.900;2022-08-19T09:17:18;17.63;;;8.77;;
22284;SDS011;11311;52.192;20.900;2022-08-19T09:22:27;9.00;;;7.47;;
22284;SDS011;11311;52.192;20.900;2022-08-19T09:24:58;9.60;;;8.00;;
22284;SDS011;11311;52.192;20.900;2022-08-19T09:27:26;8.45;;;6.63;;
22284;SDS011;11311;52.192;20.900;2022-08-19T09:30:10;14.40;;;7.47;;
22284;SDS011;11311;52.192;20.900;2022-08-19T09:32:42;13.98;;;6.80;;
22284;SDS011;11311;52.192;20.900;2022-08-19T09:37:40;15.85;;;7.75;;
22284;SDS011;11311;52.192;20.900;2022-08-19T09:40:12;13.18;;;8.27;;
22284;SDS011;11311;52.192;20.900;2022-08-19T09:42:41;17.85;;;7.22;;
22284;SDS011;11311;52.192;20.900;2022-08-19T09:45:19;12.32;;;7.47;;
22284;SDS011;11311;52.192;20.900;2022-08-19T09:47:50;16.48;;;7.03;;
22284;SDS011;11311;52.192;20.900;2022-08-19T09:50:21;17.52;;;8.48;;
22284;SDS011;11311;52.192;20.900;2022-08-19T09:52:50;20.77;;;7.10;;
22284;SDS011;11311;52.192;20.900;2022-08-19T09:55:25;13.50;;;7.20;;
22284;SDS011;11311;52.192;20.900;2022-08-19T09:57:59;18.48;;;7.38;;
22284;SDS011;11311;52.192;20.900;2022-08-19T10:00:29;14.52;;;8.18;;
22284;SDS011;11311;52.192;20.900;2022-08-19T10:02:58;17.75;;;6.55;;
22284;SDS011;11311;52.192;20.900;2022-08-19T10:05:27;20.98;;;6.82;;
22284;SDS011;11311;52.192;20.900;2022-08-19T10:08:15;12.38;;;6.70;;
22284;SDS011;11311;52.192;20.900;2022-08-19T10:10:47;16.38;;;6.18;;
22284;SDS011;11311;52.192;20.900;2022-08-19T10:13:17;17.33;;;6.03;;
22284;SDS011;11311;52.192;20.900;2022-08-19T10:15:48;15.23;;;6.50;;
22284;SDS011;11311;52.192;20.900;2022-08-19T10:18:18;13.60;;;7.13;;
22284;SDS011;11311;52.192;20.900;2022-08-19T10:20:48;13.57;;;6.80;;
22284;SDS011;11311;52.192;20.900;2022-08-19T10:23:19;9.40;;;6.30;;
22284;SDS011;11311;52.192;20.900;2022-08-19T10:25:49;11.10;;;5.97;;
22284;SDS011;11311;52.192;20.900;2022-08-19T10:28:20;11.43;;;5.70;;
22284;SDS011;11311;52.192;20.900;2022-08-19T10:33:17;16.75;;;6.80;;
22284;SDS011;11311;52.192;20.900;2022-08-19T10:36:06;11.77;;;6.55;;
22284;SDS011;11311;52.192;20.900;2022-08-19T10:38:36;12.63;;;6.63;;
22284;SDS011;11311;52.192;20.900;2022-08-19T10:41:19;16.45;;;8.52;;
22284;SDS011;11311;52.192;20.900;2022-08-19T10:43:50;16.00;;;6.47;;
22284;SDS011;11311;52.192;20.900;2022-08-19T10:46:19;14.15;;;6.30;;
22284;SDS011;11311;52.192;20.900;2022-08-19T10:48:48;12.02;;;6.18;;
22284;SDS011;11311;52.192;20.900;2022-08-19T10:51:17;8.00;;;5.57;;
22284;SDS011;11311;52.192;20.900;2022-08-19T10:54:13;9.85;;;5.75;;
22284;SDS011;11311;52.192;20.900;2022-08-19T10:56:43;13.57;;;6.55;;
22284;SDS011;11311;52.192;20.900;2022-08-19T10:59:21;15.77;;;6.13;;
22284;SDS011;11311;52.192;20.900;2022-08-19T11:01:53;21.50;;;6.38;;
22284;SDS011;11311;52.192;20.900;2022-08-19T11:04:23;20.90;;;7.63;;
22284;SDS011;11311;52.192;20.900;2022-08-19T11:06:56;9.18;;;6.22;;
22284;SDS011;11311;52.192;20.900;2022-08-19T11:09:24;8.50;;;6.22;;
22284;SDS011;11311;52.192;20.900;2022-08-19T11:12:01;13.80;;;7.97;;
22284;SDS011;11311;52.192;20.900;2022-08-19T11:14:31;14.38;;;7.20;;
22284;SDS011;11311;52.192;20.900;2022-08-19T11:17:00;19.77;;;7.60;;
22284;SDS011;11311;52.192;20.900;2022-08-19T11:19:29;17.02;;;7.72;;
22284;SDS011;11311;52.192;20.900;2022-08-19T11:21:57;8.10;;;6.45;;
22284;SDS011;11311;52.192;20.900;2022-08-19T11:24:30;14.23;;;7.90;;
22284;SDS011;11311;52.192;20.900;2022-08-19T11:27:04;32.72;;;8.52;;
22284;SDS011;11311;52.192;20.900;2022-08-19T11:29:34;14.48;;;7.85;;
22284;SDS011;11311;52.192;20.900;2022-08-19T11:32:03;9.65;;;8.15;;
22284;SDS011;11311;52.192;20.900;2022-08-19T11:34:32;13.18;;;6.75;;
22284;SDS011;11311;52.192;20.900;2022-08-19T11:37:02;16.33;;;7.20;;
22284;SDS011;11311;52.192;20.900;2022-08-19T11:39:32;10.55;;;6.47;;
22284;SDS011;11311;52.192;20.900;2022-08-19T11:42:05;14.60;;;6.45;;
22284;SDS011;11311;52.192;20.900;2022-08-19T11:44:54;12.43;;;6.15;;
22284;SDS011;11311;52.192;20.900;2022-08-19T11:47:23;11.95;;;6.75;;
22284;SDS011;11311;52.192;20.900;2022-08-19T11:49:51;12.63;;;7.25;;
22284;SDS011;11311;52.192;20.900;2022-08-19T11:52:20;14.50;;;7.70;;
22284;SDS011;11311;52.192;20.900;2022-08-19T11:54:48;14.82;;;7.57;;
22284;SDS011;11311;52.192;20.900;2022-08-19T11:57:18;13.80;;;6.95;;
22284;SDS011;11311;52.192;20.900;2022-08-19T11:59:50;19.15;;;6.68;;
22284;SDS011;11311;52.192;20.900;2022-08-19T12:02:19;10.68;;;7.38;;
22284;SDS011;11311;52.192;20.900;2022-08-19T12:04:48;19.10;;;7.32;;
22284;SDS011;11311;52.192;20.900;2022-08-19T12:07:16;10.03;;;6.53;;
22284;SDS011;11311;52.192;20.900;2022-08-19T12:09:45;11.73;;;6.43;;
22284;SDS011;11311;52.192;20.900;2022-08-19T12:12:14;9.10;;;6.10;;
22284;SDS011;11311;52.192;20.900;2022-08-19T12:14:44;14.77;;;7.37;;
22284;SDS011;11311;52.192;20.900;2022-08-19T12:17:13;9.23;;;6.20;;
22284;SDS011;11311;52.192;20.900;2022-08-19T12:19:41;11.40;;;7.70;;
22284;SDS011;11311;52.192;20.900;2022-08-19T12:22:11;16.30;;;6.97;;
22284;SDS011;11311;52.192;20.900;2022-08-19T12:24:40;13.65;;;7.80;;
22284;SDS011;11311;52.192;20.900;2022-08-19T12:27:08;12.85;;;6.88;;
22284;SDS011;11311;52.192;20.900;2022-08-19T12:29:39;15.77;;;6.47;;
22284;SDS011;11311;52.192;20.900;2022-08-19T12:34:38;8.23;;;5.90;;
22284;SDS011;11311;52.192;20.900;2022-08-19T12:37:07;12.25;;;6.47;;
22284;SDS011;11311;52.192;20.900;2022-08-19T12:39:36;9.90;;;5.88;;
22284;SDS011;11311;52.192;20.900;2022-08-19T12:42:05;12.52;;;6.78;;
22284;SDS011;11311;52.192;20.900;2022-08-19T12:44:35;13.10;;;6.80;;
22284;SDS011;11311;52.192;20.900;2022-08-19T12:47:07;16.40;;;6.05;;
22284;SDS011;11311;52.192;20.900;2022-08-19T12:49:38;12.02;;;7.15;;
22284;SDS011;11311;52.192;20.900;2022-08-19T12:52:21;13.95;;;7.05;;
22284;SDS011;11311;52.192;20.900;2022-08-19T12:54:51;10.10;;;7.15;;
22284;SDS011;11311;52.192;20.900;2022-08-19T12:57:21;15.13;;;6.28;;
22284;SDS011;11311;52.192;20.900;2022-08-19T12:59:59;14.98;;;5.70;;
22284;SDS011;11311;52.192;20.900;2022-08-19T13:02:34;9.13;;;6.20;;
22284;SDS011;11311;52.192;20.900;2022-08-19T13:05:05;8.80;;;6.03;;
22284;SDS011;11311;52.192;20.900;2022-08-19T13:07:35;8.90;;;5.75;;
22284;SDS011;11311;52.192;20.900;2022-08-19T13:10:04;11.75;;;6.10;;
22284;SDS011;11311;52.192;20.900;2022-08-19T13:12:33;11.65;;;6.95;;
22284;SDS011;11311;52.192;20.900;2022-08-19T13:15:02;13.67;;;6.97;;
22284;SDS011;11311;52.192;20.900;2022-08-19T13:17:38;14.13;;;7.20;;
22284;SDS011;11311;52.192;20.900;2022-08-19T13:20:08;10.43;;;5.47;;
22284;SDS011;11311;52.192;20.900;2022-08-19T13:22:38;15.55;;;6.40;;
22284;SDS011;11311;52.192;20.900;2022-08-19T13:25:07;14.63;;;5.82;;
22284;SDS011;11311;52.192;20.900;2022-08-19T13:30:05;11.40;;;6.03;;
22284;SDS011;11311;52.192;20.900;2022-08-19T13:32:54;5.95;;;4.80;;
22284;SDS011;11311;52.192;20.900;2022-08-19T13:35:37;16.77;;;6.35;;
22284;SDS011;11311;52.192;20.900;2022-08-19T13:38:05;11.55;;;7.07;;
22284;SDS011;11311;52.192;20.900;2022-08-19T13:40:37;14.57;;;5.82;;
22284;SDS011;11311;52.192;20.900;2022-08-19T13:43:07;13.15;;;6.63;;
22284;SDS011;11311;52.192;20.900;2022-08-19T13:45:49;11.10;;;5.88;;
22284;SDS011;11311;52.192;20.900;2022-08-19T13:48:21;12.48;;;5.82;;
22284;SDS011;11311;52.192;20.900;2022-08-19T13:50:51;15.48;;;6.00;;
22284;SDS011;11311;52.192;20.900;2022-08-19T13:53:21;11.98;;;5.75;;
22284;SDS011;11311;52.192;20.900;2022-08-19T13:55:50;14.30;;;6.10;;
22284;SDS011;11311;52.192;20.900;2022-08-19T13:58:20;12.20;;;5.65;;
22284;SDS011;11311;52.192;20.900;2022-08-19T14:00:49;11.88;;;5.50;;
22284;SDS011;11311;52.192;20.900;2022-08-19T14:03:17;9.82;;;6.05;;
22284;SDS011;11311;52.192;20.900;2022-08-19T14:05:47;8.68;;;5.75;;
22284;SDS011;11311;52.192;20.900;2022-08-19T14:08:16;6.50;;;5.22;;
22284;SDS011;11311;52.192;20.900;2022-08-19T14:10:44;11.87;;;5.50;;
22284;SDS011;11311;52.192;20.900;2022-08-19T14:13:13;19.07;;;6.20;;
22284;SDS011;11311;52.192;20.900;2022-08-19T14:15:44;21.83;;;5.10;;
22284;SDS011;11311;52.192;20.900;2022-08-19T14:18:12;11.80;;;4.70;;
22284;SDS011;11311;52.192;20.900;2022-08-19T14:20:41;11.00;;;4.80;;
22284;SDS011;11311;52.192;20.900;2022-08-19T14:23:11;10.30;;;5.45;;
22284;SDS011;11311;52.192;20.900;2022-08-19T14:25:40;12.00;;;5.20;;
22284;SDS011;11311;52.192;20.900;2022-08-19T14:28:08;12.83;;;4.80;;
22284;SDS011;11311;52.192;20.900;2022-08-19T14:30:37;11.47;;;5.63;;
22284;SDS011;11311;52.192;20.900;2022-08-19T14:33:06;13.73;;;4.97;;
22284;SDS011;11311;52.192;20.900;2022-08-19T14:35:35;20.08;;;4.72;;
22284;SDS011;11311;52.192;20.900;2022-08-19T14:38:04;12.50;;;5.60;;
22284;SDS011;11311;52.192;20.900;2022-08-19T14:40:35;8.93;;;4.85;;
22284;SDS011;11311;52.192;20.900;2022-08-19T14:43:04;7.63;;;4.93;;
22284;SDS011;11311;52.192;20.900;2022-08-19T14:45:34;11.10;;;4.68;;
22284;SDS011;11311;52.192;20.900;2022-08-19T14:48:04;17.20;;;4.90;;
22284;SDS011;11311;52.192;20.900;2022-08-19T14:50:33;12.98;;;5.13;;
22284;SDS011;11311;52.192;20.900;2022-08-19T14:53:03;14.75;;;5.15;;
22284;SDS011;11311;52.192;20.900;2022-08-19T14:55:41;8.02;;;5.05;;
22284;SDS011;11311;52.192;20.900;2022-08-19T14:58:10;15.88;;;5.55;;
22284;SDS011;11311;52.192;20.900;2022-08-19T15:00:56;14.73;;;5.18;;
22284;SDS011;11311;52.192;20.900;2022-08-19T15:03:25;19.23;;;5.00;;
22284;SDS011;11311;52.192;20.900;2022-08-19T15:05:54;10.30;;;4.57;;
22284;SDS011;11311;52.192;20.900;2022-08-19T15:08:24;10.90;;;4.40;;
22284;SDS011;11311;52.192;20.900;2022-08-19T15:10:54;15.20;;;4.68;;
22284;SDS011;11311;52.192;20.900;2022-08-19T15:13:23;14.05;;;4.35;;